createdAt,value
2017-09-23T00:01:25.946Z,90.80
2017-09-23T00:03:54.940Z,90.60
2017-09-23T00:06:23.710Z,91.00
2017-09-23T00:08:52.614Z,90.40
2017-09-23T00:11:21.411Z,90.50
2017-09-23T00:13:50.558Z,90.40
2017-09-23T00:16:20.208Z,90.30
2017-09-23T00:18:49.095Z,90.30
2017-09-23T00:21:17.702Z,90.50
2017-09-23T00:23:46.880Z,90.20
2017-09-23T00:26:15.784Z,90.20
2017-09-23T00:28:45.372Z,89.40
2017-09-23T00:31:15.039Z,89.20
2017-09-23T00:33:44.078Z,90.10
2017-09-23T00:36:13.747Z,90.00
2017-09-23T00:38:42.880Z,89.70
2017-09-23T00:41:11.355Z,90.30
2017-09-23T00:43:39.736Z,90.60
2017-09-23T00:46:08.117Z,91.00
2017-09-23T00:48:36.551Z,91.00
2017-09-23T00:51:06.596Z,91.40
2017-09-23T00:53:35.506Z,91.40
2017-09-23T00:56:05.892Z,91.40
2017-09-23T00:58:35.025Z,91.40
2017-09-23T01:01:03.820Z,90.90
2017-09-23T01:03:32.602Z,91.00
2017-09-23T01:06:01.007Z,91.10
2017-09-23T01:08:29.393Z,91.00
2017-09-23T01:10:57.976Z,91.20
2017-09-23T01:13:26.359Z,91.80
2017-09-23T01:15:55.508Z,92.40
2017-09-23T01:18:23.961Z,92.00
2017-09-23T01:20:52.353Z,92.10
2017-09-23T01:23:20.751Z,92.40
2017-09-23T01:25:49.186Z,92.30
2017-09-23T01:28:18.346Z,92.50
2017-09-23T01:30:46.734Z,92.50
2017-09-23T01:33:15.154Z,92.30
2017-09-23T01:35:43.567Z,92.60
2017-09-23T01:38:11.944Z,92.40
2017-09-23T01:40:40.367Z,91.70
2017-09-23T01:43:09.507Z,92.40
2017-09-23T01:45:37.895Z,92.30
2017-09-23T01:48:06.296Z,92.30
2017-09-23T01:50:34.675Z,92.70
2017-09-23T01:53:03.137Z,92.70
2017-09-23T01:55:31.559Z,92.70
2017-09-23T01:58:00.717Z,91.50
2017-09-23T02:00:29.106Z,91.50
2017-09-23T02:02:57.526Z,92.10
2017-09-23T02:05:26.690Z,92.40
2017-09-23T02:07:55.072Z,92.40
2017-09-23T02:10:23.478Z,92.10
2017-09-23T02:12:52.637Z,91.70
2017-09-23T02:15:21.034Z,91.70
2017-09-23T02:17:50.207Z,91.80
2017-09-23T02:20:18.681Z,92.00
2017-09-23T02:22:47.060Z,91.90
2017-09-23T02:25:15.475Z,91.20
2017-09-23T02:27:44.617Z,91.50
2017-09-23T02:30:13.009Z,91.40
2017-09-23T02:32:41.449Z,91.60
2017-09-23T02:35:10.589Z,92.30
2017-09-23T02:37:38.958Z,92.30
2017-09-23T02:40:07.606Z,91.40
2017-09-23T02:42:36.752Z,92.30
2017-09-23T02:45:05.127Z,92.30
2017-09-23T02:47:33.531Z,93.00
2017-09-23T02:50:01.914Z,92.90
2017-09-23T02:52:30.315Z,92.60
2017-09-23T02:54:59.550Z,92.70
2017-09-23T02:57:27.926Z,93.00
2017-09-23T02:59:56.299Z,92.60
2017-09-23T03:02:24.903Z,92.70
2017-09-23T03:04:53.948Z,92.60
2017-09-23T03:07:23.099Z,92.70
2017-09-23T03:09:51.504Z,92.60
2017-09-23T03:12:19.878Z,91.70
2017-09-23T03:14:48.254Z,91.70
2017-09-23T03:17:16.679Z,92.40
2017-09-23T03:19:45.052Z,92.60
2017-09-23T03:22:13.427Z,92.00
2017-09-23T03:24:41.842Z,92.10
2017-09-23T03:27:10.233Z,92.50
2017-09-23T03:29:38.643Z,93.30
2017-09-23T03:32:07.897Z,93.90
2017-09-23T03:34:36.271Z,93.80
2017-09-23T03:37:05.610Z,93.50
2017-09-23T03:39:34.694Z,93.20
2017-09-23T03:42:03.089Z,93.20
2017-09-23T03:44:31.466Z,92.50
2017-09-23T03:46:59.910Z,92.20
2017-09-23T03:49:28.306Z,92.30
2017-09-23T03:51:56.705Z,92.50
2017-09-23T03:54:25.962Z,92.70
2017-09-23T03:56:54.329Z,92.80
2017-09-23T03:59:22.745Z,92.70
2017-09-23T04:01:51.166Z,92.80
2017-09-23T04:04:19.538Z,92.80
2017-09-23T04:06:47.915Z,92.90
2017-09-23T04:09:17.099Z,92.90
2017-09-23T04:11:46.242Z,93.20
2017-09-23T04:14:14.626Z,93.20
2017-09-23T04:16:43.030Z,93.30
2017-09-23T04:19:11.424Z,93.60
2017-09-23T04:21:40.948Z,93.60
2017-09-23T04:24:10.120Z,93.80
2017-09-23T04:26:38.548Z,93.80
2017-09-23T04:29:06.923Z,93.80
2017-09-23T04:31:35.334Z,93.80
2017-09-23T04:34:03.711Z,93.60
2017-09-23T04:36:32.090Z,93.60
2017-09-23T04:39:00.486Z,93.60
2017-09-23T04:41:28.870Z,93.70
2017-09-23T04:43:57.243Z,93.90
2017-09-23T04:46:25.701Z,94.00
2017-09-23T04:48:54.080Z,93.90
2017-09-23T04:51:22.456Z,94.00
2017-09-23T04:53:50.910Z,93.90
2017-09-23T04:56:19.295Z,94.00
2017-09-23T04:58:47.724Z,93.80
2017-09-23T05:01:16.150Z,93.60
2017-09-23T05:03:44.530Z,93.30
2017-09-23T05:06:12.994Z,93.40
2017-09-23T05:08:41.413Z,93.50
2017-09-23T05:11:09.799Z,93.60
2017-09-23T05:13:38.186Z,93.50
2017-09-23T05:16:06.599Z,93.40
2017-09-23T05:18:35.748Z,93.20
2017-09-23T05:21:04.130Z,93.20
2017-09-23T05:23:32.534Z,93.30
2017-09-23T05:26:00.934Z,93.80
2017-09-23T05:28:30.103Z,93.30
2017-09-23T05:30:58.499Z,93.30
2017-09-23T05:33:26.874Z,93.50
2017-09-23T05:35:55.253Z,93.70
2017-09-23T05:38:23.710Z,93.60
2017-09-23T05:40:52.083Z,93.70
2017-09-23T05:43:20.459Z,93.90
2017-09-23T05:45:49.093Z,93.30
2017-09-23T05:48:17.472Z,92.90
2017-09-23T05:50:45.868Z,92.20
2017-09-23T05:53:14.310Z,91.80
2017-09-23T05:55:43.459Z,91.50
2017-09-23T05:58:11.890Z,91.50
2017-09-23T06:00:41.092Z,90.70
2017-09-23T06:03:10.239Z,89.50
2017-09-23T06:05:38.631Z,89.50
2017-09-23T06:08:07.039Z,86.90
2017-09-23T06:10:36.191Z,84.00
2017-09-23T06:13:04.566Z,83.90
2017-09-23T06:15:32.980Z,81.00
2017-09-23T06:18:01.412Z,80.90
2017-09-23T06:20:29.917Z,82.00
2017-09-23T06:22:58.351Z,83.80
2017-09-23T06:25:26.781Z,86.70
2017-09-23T06:27:55.203Z,85.70
2017-09-23T06:30:24.395Z,80.40
2017-09-23T06:32:53.541Z,77.10
2017-09-23T06:35:21.949Z,77.10
2017-09-23T06:37:50.411Z,76.00
2017-09-23T06:40:18.834Z,77.60
2017-09-23T06:42:48.090Z,79.80
2017-09-23T06:45:17.389Z,77.00
2017-09-23T06:47:46.144Z,77.60
2017-09-23T06:50:14.556Z,77.10
2017-09-23T06:52:43.011Z,77.30
2017-09-23T06:55:11.411Z,77.70
2017-09-23T06:57:39.813Z,77.40
2017-09-23T07:00:08.219Z,78.10
2017-09-23T07:02:37.392Z,79.00
2017-09-23T07:05:05.793Z,79.00
2017-09-23T07:07:35.178Z,79.80
2017-09-23T07:10:04.115Z,79.70
2017-09-23T07:12:32.568Z,79.40
2017-09-23T07:15:01.747Z,79.90
2017-09-23T07:17:30.133Z,79.80
2017-09-23T07:19:59.295Z,78.80
2017-09-23T07:22:27.868Z,78.80
2017-09-23T07:24:56.266Z,77.90
2017-09-23T07:27:24.659Z,77.60
2017-09-23T07:29:53.069Z,79.50
2017-09-23T07:32:21.450Z,80.70
2017-09-23T07:34:49.855Z,80.80
2017-09-23T07:37:18.272Z,78.80
2017-09-23T07:39:46.662Z,77.40
2017-09-23T07:42:15.101Z,74.40
2017-09-23T07:44:43.528Z,72.80
2017-09-23T07:47:12.712Z,72.70
2017-09-23T07:49:41.503Z,72.80
2017-09-23T07:52:09.929Z,73.20
2017-09-23T07:54:38.339Z,73.80
2017-09-23T07:57:06.724Z,72.60
2017-09-23T07:59:35.137Z,70.00
2017-09-23T08:02:04.287Z,67.60
2017-09-23T08:04:32.667Z,67.50
2017-09-23T08:07:01.119Z,66.60
2017-09-23T08:09:29.494Z,66.10
2017-09-23T08:11:57.891Z,63.70
2017-09-23T08:14:26.584Z,64.10
2017-09-23T08:17:02.172Z,63.20
2017-09-23T08:19:32.020Z,60.70
2017-09-23T08:22:01.127Z,59.50
2017-09-23T08:24:30.477Z,59.40
2017-09-23T08:27:00.031Z,59.00
2017-09-23T08:29:28.424Z,58.50
2017-09-23T08:32:04.198Z,58.10
2017-09-23T08:34:32.629Z,57.80
2017-09-23T08:37:01.088Z,57.50
2017-09-23T08:39:29.527Z,56.60
2017-09-23T08:41:57.918Z,57.90
2017-09-23T08:44:26.317Z,58.40
2017-09-23T08:46:55.499Z,56.60
2017-09-23T08:49:23.956Z,56.60
2017-09-23T08:51:52.342Z,55.60
2017-09-23T08:54:21.815Z,55.20
2017-09-23T08:56:51.795Z,57.70
2017-09-23T08:59:21.253Z,57.60
2017-09-23T09:01:49.865Z,57.50
2017-09-23T09:04:18.262Z,56.70
2017-09-23T09:06:47.406Z,56.40
2017-09-23T09:09:15.815Z,56.40
2017-09-23T09:11:44.202Z,56.30
2017-09-23T09:14:13.367Z,53.30
2017-09-23T09:16:41.818Z,53.20
2017-09-23T09:19:10.201Z,52.90
2017-09-23T09:21:39.540Z,53.60
2017-09-23T09:24:08.007Z,53.60
2017-09-23T09:26:36.411Z,54.70
2017-09-23T09:29:04.812Z,53.40
2017-09-23T09:31:34.140Z,51.00
2017-09-23T09:34:02.552Z,50.90
2017-09-23T09:36:30.944Z,50.10
2017-09-23T09:38:59.441Z,49.00
2017-09-23T09:41:28.661Z,48.20
2017-09-23T09:43:57.650Z,48.10
2017-09-23T09:46:26.068Z,46.40
2017-09-23T09:48:55.575Z,44.90
2017-09-23T09:51:26.472Z,41.80
2017-09-23T09:53:55.742Z,40.90
2017-09-23T09:56:24.131Z,40.80
2017-09-23T09:58:54.234Z,41.10
2017-09-23T10:01:22.678Z,41.10
2017-09-23T10:03:51.066Z,41.20
2017-09-23T10:06:19.547Z,41.40
2017-09-23T10:08:47.962Z,40.30
2017-09-23T10:11:16.371Z,40.80
2017-09-23T10:13:46.565Z,40.80
2017-09-23T10:16:15.257Z,41.30
2017-09-23T10:18:44.404Z,42.20
2017-09-23T10:21:12.795Z,42.20
2017-09-23T10:23:42.363Z,43.80
2017-09-23T10:26:11.793Z,43.80
2017-09-23T10:28:41.003Z,43.10
2017-09-23T10:31:09.426Z,43.10
2017-09-23T10:33:38.583Z,42.40
2017-09-23T10:36:06.994Z,42.40
2017-09-23T10:38:36.182Z,44.70
2017-09-23T10:41:04.573Z,44.70
2017-09-23T10:43:33.741Z,44.60
2017-09-23T10:46:02.203Z,44.50
2017-09-23T10:48:31.101Z,43.70
2017-09-23T10:50:59.499Z,42.60
2017-09-23T10:53:27.950Z,42.30
2017-09-23T10:55:56.543Z,39.70
2017-09-23T10:58:24.964Z,40.10
2017-09-23T11:00:54.508Z,38.70
2017-09-23T11:03:23.600Z,38.60
2017-09-23T11:05:52.071Z,37.30
2017-09-23T11:08:20.502Z,37.50
2017-09-23T11:10:48.883Z,37.30
2017-09-23T11:13:17.279Z,37.70
2017-09-23T11:15:46.467Z,38.40
2017-09-23T11:18:15.619Z,39.00
2017-09-23T11:20:44.600Z,38.90
2017-09-23T11:23:13.007Z,38.60
2017-09-23T11:25:42.248Z,36.50
2017-09-23T11:28:11.420Z,36.20
2017-09-23T11:30:39.846Z,36.20
2017-09-23T11:33:08.318Z,35.90
2017-09-23T11:35:36.837Z,36.80
2017-09-23T11:38:05.297Z,36.40
2017-09-23T11:40:33.937Z,36.80
2017-09-23T11:43:03.082Z,37.60
2017-09-23T11:45:31.493Z,37.00
2017-09-23T11:47:59.888Z,36.60
2017-09-23T11:50:28.539Z,36.10
2017-09-23T11:52:57.254Z,35.90
2017-09-23T11:55:25.639Z,35.70
2017-09-23T11:57:54.953Z,35.40
2017-09-23T12:00:24.145Z,36.70
2017-09-23T12:02:53.313Z,37.50
2017-09-23T12:05:21.687Z,37.50
2017-09-23T12:07:50.164Z,36.90
2017-09-23T12:10:18.555Z,37.40
2017-09-23T12:12:46.939Z,37.20
2017-09-23T12:15:15.722Z,36.80
2017-09-23T12:17:44.906Z,37.60
2017-09-23T12:20:13.309Z,37.60
2017-09-23T12:22:41.798Z,37.00
2017-09-23T12:25:10.972Z,36.20
2017-09-23T12:27:39.825Z,35.50
2017-09-23T12:30:09.497Z,35.30
2017-09-23T12:32:38.645Z,36.10
2017-09-23T12:35:07.022Z,36.00
2017-09-23T12:37:35.462Z,35.80
2017-09-23T12:40:04.632Z,36.80
2017-09-23T12:42:33.048Z,37.40
2017-09-23T12:45:01.472Z,36.90
2017-09-23T12:47:29.867Z,37.10
2017-09-23T12:49:58.258Z,37.40
2017-09-23T12:52:27.661Z,37.80
2017-09-23T12:54:57.090Z,38.80
2017-09-23T12:57:25.479Z,38.60
2017-09-23T12:59:53.905Z,40.70
2017-09-23T13:02:22.287Z,40.40
2017-09-23T13:04:50.691Z,39.80
2017-09-23T13:07:19.869Z,42.00
2017-09-23T13:09:48.242Z,42.00
2017-09-23T13:12:17.394Z,45.90
2017-09-23T13:14:45.810Z,45.80
2017-09-23T13:17:14.199Z,46.50
2017-09-23T13:19:42.583Z,47.40
2017-09-23T13:22:11.885Z,49.00
2017-09-23T13:24:40.254Z,49.00
2017-09-23T13:27:08.639Z,48.20
2017-09-23T13:29:37.851Z,47.70
2017-09-23T13:32:07.003Z,46.80
2017-09-23T13:34:35.395Z,46.70
2017-09-23T13:37:03.839Z,45.80
2017-09-23T13:39:32.220Z,46.30
2017-09-23T13:42:00.605Z,45.10
2017-09-23T13:44:29.034Z,46.50
2017-09-23T13:46:58.195Z,48.20
2017-09-23T13:49:26.589Z,48.10
2017-09-23T13:51:55.349Z,49.30
2017-09-23T13:54:23.742Z,50.40
2017-09-23T13:56:52.145Z,50.70
2017-09-23T13:59:20.581Z,49.50
2017-09-23T14:01:48.963Z,49.50
2017-09-23T14:04:17.341Z,47.80
2017-09-23T14:06:46.028Z,47.50
2017-09-23T14:09:14.403Z,48.60
2017-09-23T14:11:42.778Z,47.00
2017-09-23T14:14:11.235Z,46.30
2017-09-23T14:16:40.619Z,46.60
2017-09-23T14:19:09.766Z,48.50
2017-09-23T14:21:38.193Z,48.50
2017-09-23T14:24:07.334Z,51.30
2017-09-23T14:26:35.724Z,51.30
2017-09-23T14:29:04.174Z,49.50
2017-09-23T14:31:32.574Z,48.80
2017-09-23T14:34:00.958Z,49.70
2017-09-23T14:36:29.401Z,50.30
2017-09-23T14:38:57.782Z,50.30
2017-09-23T14:41:26.195Z,50.90
2017-09-23T14:43:54.616Z,51.10
2017-09-23T14:46:23.769Z,52.40
2017-09-23T14:48:52.151Z,52.40
2017-09-23T14:51:20.614Z,51.80
2017-09-23T14:53:49.002Z,52.80
2017-09-23T14:56:17.387Z,53.20
2017-09-23T14:58:45.800Z,53.10
2017-09-23T15:01:14.190Z,54.10
2017-09-23T15:03:43.350Z,54.80
2017-09-23T15:06:13.258Z,54.70
2017-09-23T15:08:41.713Z,54.80
2017-09-23T15:11:10.119Z,54.90
2017-09-23T15:13:38.551Z,55.60
2017-09-23T15:16:06.979Z,55.50
2017-09-23T15:18:35.362Z,55.20
2017-09-23T15:21:03.784Z,54.60
2017-09-23T15:23:32.931Z,54.90
2017-09-23T15:26:02.368Z,54.80
2017-09-23T15:28:30.801Z,55.70
2017-09-23T15:30:59.190Z,57.10
2017-09-23T15:33:27.610Z,56.80
2017-09-23T15:35:56.969Z,57.60
2017-09-23T15:38:25.359Z,57.50
2017-09-23T15:40:53.763Z,57.40
2017-09-23T15:43:22.952Z,58.10
2017-09-23T15:45:51.358Z,58.10
2017-09-23T15:48:21.455Z,58.90
2017-09-23T15:50:49.904Z,59.30
2017-09-23T15:53:18.314Z,60.40
2017-09-23T15:55:46.702Z,60.60
2017-09-23T15:58:15.912Z,61.20
2017-09-23T16:00:45.073Z,62.00
2017-09-23T16:03:13.488Z,61.90
2017-09-23T16:05:42.795Z,63.50
2017-09-23T16:08:11.206Z,63.50
2017-09-23T16:10:39.587Z,65.00
2017-09-23T16:13:08.003Z,65.80
2017-09-23T16:15:36.387Z,66.10
2017-09-23T16:18:04.829Z,66.50
2017-09-23T16:20:33.278Z,67.00
2017-09-23T16:23:01.658Z,67.40
2017-09-23T16:25:30.182Z,67.10
2017-09-23T16:27:58.607Z,67.60
2017-09-23T16:30:27.772Z,68.30
2017-09-23T16:32:56.160Z,68.30
2017-09-23T16:35:25.424Z,68.70
2017-09-23T16:37:53.870Z,69.60
2017-09-23T16:40:22.361Z,70.30
2017-09-23T16:42:50.773Z,71.10
2017-09-23T16:45:19.200Z,70.80
2017-09-23T16:47:48.635Z,71.30
2017-09-23T16:50:17.064Z,71.30
2017-09-23T16:52:46.223Z,72.80
2017-09-23T16:55:14.663Z,72.50
2017-09-23T16:57:43.057Z,73.10
2017-09-23T17:00:11.527Z,73.90
2017-09-23T17:02:39.906Z,74.30
2017-09-23T17:05:08.298Z,74.60
2017-09-23T17:07:36.722Z,75.10
2017-09-23T17:10:05.126Z,75.70
2017-09-23T17:12:34.583Z,77.30
2017-09-23T17:15:02.967Z,77.30
2017-09-23T17:17:31.446Z,77.30
2017-09-23T17:19:59.868Z,77.80
2017-09-23T17:22:29.022Z,78.40
2017-09-23T17:24:57.475Z,78.40
2017-09-23T17:27:25.854Z,78.50
2017-09-23T17:29:54.281Z,79.10
2017-09-23T17:32:22.706Z,80.30
2017-09-23T17:34:51.097Z,80.20
2017-09-23T17:37:19.933Z,80.50
2017-09-23T17:39:48.334Z,79.90
2017-09-23T17:42:17.479Z,79.70
2017-09-23T17:44:45.889Z,79.70
2017-09-23T17:47:15.039Z,81.10
2017-09-23T17:49:46.283Z,80.30
2017-09-23T17:52:15.165Z,80.50
2017-09-23T17:54:43.597Z,80.80
2017-09-23T17:57:12.010Z,81.40
2017-09-23T17:59:40.645Z,81.70
2017-09-23T18:02:09.050Z,81.50
2017-09-23T18:04:39.223Z,81.80
2017-09-23T18:07:08.077Z,81.80
2017-09-23T18:09:36.570Z,82.00
2017-09-23T18:12:04.990Z,82.40
2017-09-23T18:14:33.558Z,83.20
2017-09-23T18:17:01.975Z,82.60
2017-09-23T18:19:30.950Z,82.70
2017-09-23T18:21:59.331Z,82.70
2017-09-23T18:24:27.789Z,83.10
2017-09-23T18:26:56.270Z,82.70
2017-09-23T18:29:24.667Z,83.10
2017-09-23T18:31:53.340Z,82.60
2017-09-23T18:34:21.800Z,82.70
2017-09-23T18:36:50.314Z,83.60
2017-09-23T18:39:18.723Z,83.90
2017-09-23T18:41:47.887Z,84.90
2017-09-23T18:44:16.358Z,84.70
2017-09-23T18:46:45.438Z,84.60
2017-09-23T18:49:14.021Z,84.70
2017-09-23T18:51:43.319Z,85.70
2017-09-23T18:54:13.286Z,85.70
2017-09-23T18:56:42.137Z,85.10
2017-09-23T18:59:10.539Z,84.90
2017-09-23T19:01:38.964Z,84.90
2017-09-23T19:04:07.375Z,85.60
2017-09-23T19:06:35.825Z,85.30
2017-09-23T19:09:04.979Z,85.00
2017-09-23T19:11:34.163Z,86.40
2017-09-23T19:14:03.671Z,86.40
2017-09-23T19:16:33.078Z,86.80
2017-09-23T19:19:02.076Z,86.80
2017-09-23T19:21:31.660Z,86.90
2017-09-23T19:24:00.104Z,86.70
2017-09-23T19:26:28.956Z,86.40
2017-09-23T19:28:58.995Z,87.00
2017-09-23T19:31:28.148Z,86.90
2017-09-23T19:33:57.071Z,86.90
2017-09-23T19:36:26.232Z,88.20
2017-09-23T19:38:54.627Z,88.20
2017-09-23T19:41:23.182Z,88.40
2017-09-23T19:43:51.578Z,89.90
2017-09-23T19:46:21.014Z,90.10
2017-09-23T19:48:50.203Z,90.00
2017-09-23T19:51:19.521Z,89.90
2017-09-23T19:53:48.758Z,89.90
2017-09-23T19:56:17.232Z,89.90
2017-09-23T19:58:45.830Z,89.50
2017-09-23T20:01:15.910Z,89.00
2017-09-23T20:03:44.406Z,89.40
2017-09-23T20:06:12.901Z,89.80
2017-09-23T20:08:41.294Z,89.80
2017-09-23T20:11:09.764Z,89.30
2017-09-23T20:13:38.320Z,88.50
2017-09-23T20:16:06.826Z,89.80
2017-09-23T20:18:35.283Z,89.30
2017-09-23T20:21:03.979Z,89.80
2017-09-23T20:23:32.371Z,89.20
2017-09-23T20:26:00.871Z,88.80
2017-09-23T20:28:29.590Z,88.30
2017-09-23T20:30:58.845Z,88.80
2017-09-23T20:33:27.422Z,88.70
2017-09-23T20:35:55.925Z,88.50
2017-09-23T20:38:24.796Z,89.40
2017-09-23T20:40:53.246Z,89.30
2017-09-23T20:43:21.671Z,89.70
2017-09-23T20:45:50.070Z,89.90
2017-09-23T20:48:18.482Z,90.00
2017-09-23T20:50:46.908Z,90.30
2017-09-23T20:53:15.302Z,90.60
2017-09-23T20:55:44.104Z,90.70
2017-09-23T20:58:13.319Z,90.40
2017-09-23T21:00:41.708Z,90.40
2017-09-23T21:03:10.087Z,90.20
2017-09-23T21:05:38.575Z,90.50
2017-09-23T21:08:07.023Z,90.60
2017-09-23T21:10:35.413Z,90.40
2017-09-23T21:13:04.649Z,90.40
2017-09-23T21:15:33.086Z,90.40
2017-09-23T21:18:01.625Z,90.30
2017-09-23T21:20:30.087Z,90.70
2017-09-23T21:22:59.905Z,90.90
2017-09-23T21:25:28.700Z,90.80
2017-09-23T21:27:57.186Z,91.10
2017-09-23T21:30:25.673Z,91.00
2017-09-23T21:32:54.067Z,90.70
2017-09-23T21:35:22.490Z,90.60
2017-09-23T21:37:51.877Z,90.80
2017-09-23T21:40:20.343Z,91.10
2017-09-23T21:42:49.575Z,91.50
2017-09-23T21:45:18.434Z,91.50
2017-09-23T21:47:47.582Z,91.70
2017-09-23T21:50:15.991Z,91.70
2017-09-23T21:52:46.602Z,91.90
2017-09-23T21:55:15.097Z,91.90
2017-09-23T21:57:43.556Z,91.60
2017-09-23T22:00:12.085Z,91.50
2017-09-23T22:02:41.241Z,91.20
2017-09-23T22:05:09.687Z,91.20
2017-09-23T22:07:38.081Z,91.20
2017-09-23T22:10:06.519Z,91.30
2017-09-23T22:12:35.712Z,91.20
2017-09-23T22:15:04.880Z,91.10
2017-09-23T22:17:33.267Z,91.10
2017-09-23T22:20:01.872Z,91.60
2017-09-23T22:22:31.043Z,90.50
2017-09-23T22:24:59.446Z,90.50
2017-09-23T22:27:28.634Z,90.60
2017-09-23T22:29:57.101Z,90.60
2017-09-23T22:32:27.011Z,91.40
2017-09-23T22:34:56.971Z,91.70
2017-09-23T22:37:25.358Z,91.60
2017-09-23T22:39:53.740Z,91.80
2017-09-23T22:42:22.391Z,91.60
2017-09-23T22:44:51.644Z,91.40
2017-09-23T22:47:20.023Z,91.40
2017-09-23T22:49:48.450Z,90.80
2017-09-23T22:52:17.595Z,91.10
2017-09-23T22:54:45.972Z,91.00
2017-09-23T22:57:14.383Z,91.40
2017-09-23T22:59:42.762Z,91.80
2017-09-23T23:02:11.140Z,91.50
2017-09-23T23:04:39.562Z,91.40
2017-09-23T23:07:07.939Z,91.60
2017-09-23T23:09:36.331Z,91.70
2017-09-23T23:12:04.751Z,91.70
2017-09-23T23:14:33.128Z,91.40
2017-09-23T23:17:01.508Z,91.40
2017-09-23T23:19:29.925Z,91.30
2017-09-23T23:21:58.315Z,91.30
2017-09-23T23:24:26.695Z,91.20
2017-09-23T23:26:55.137Z,90.90
2017-09-23T23:29:23.519Z,90.90
2017-09-23T23:31:51.895Z,90.50
2017-09-23T23:34:20.302Z,90.10
2017-09-23T23:36:48.690Z,90.60
2017-09-23T23:39:17.071Z,90.80
2017-09-23T23:41:45.513Z,91.80
2017-09-23T23:44:14.680Z,91.30
2017-09-23T23:46:43.062Z,91.30
2017-09-23T23:49:11.825Z,91.40
2017-09-23T23:51:40.222Z,91.30
2017-09-23T23:54:08.607Z,90.60
2017-09-23T23:56:37.038Z,90.50
2017-09-23T23:59:05.585Z,90.60
